sensor_id;sensor_type;location;lat;lon;timestamp;P1;durP1;ratioP1;P2;durP2;ratioP2
53907;SDS011;40469;47.998;7.794;2022-12-17T00:01:41;52.03;;;22.00;;
53907;SDS011;40469;47.998;7.794;2022-12-17T00:04:45;45.33;;;20.98;;
53907;SDS011;40469;47.998;7.794;2022-12-17T00:07:29;45.03;;;20.25;;
53907;SDS011;40469;47.998;7.794;2022-12-17T00:10:12;44.22;;;21.48;;
53907;SDS011;40469;47.998;7.794;2022-12-17T00:12:56;46.38;;;21.08;;
53907;SDS011;40469;47.998;7.794;2022-12-17T00:15:40;53.33;;;22.95;;
53907;SDS011;40469;47.998;7.794;2022-12-17T00:18:24;50.40;;;23.48;;
53907;SDS011;40469;47.998;7.794;2022-12-17T00:21:08;46.97;;;20.77;;
53907;SDS011;40469;47.998;7.794;2022-12-17T00:23:52;42.85;;;19.85;;
53907;SDS011;40469;47.998;7.794;2022-12-17T00:26:36;48.30;;;20.90;;
53907;SDS011;40469;47.998;7.794;2022-12-17T00:29:20;45.92;;;21.65;;
53907;SDS011;40469;47.998;7.794;2022-12-17T00:32:04;49.72;;;22.00;;
53907;SDS011;40469;47.998;7.794;2022-12-17T00:34:47;47.63;;;21.65;;
53907;SDS011;40469;47.998;7.794;2022-12-17T00:37:31;51.30;;;22.17;;
53907;SDS011;40469;47.998;7.794;2022-12-17T00:40:15;48.22;;;21.38;;
53907;SDS011;40469;47.998;7.794;2022-12-17T00:45:55;50.38;;;21.10;;
53907;SDS011;40469;47.998;7.794;2022-12-17T00:48:39;47.55;;;18.92;;
53907;SDS011;40469;47.998;7.794;2022-12-17T00:51:23;46.45;;;19.45;;
53907;SDS011;40469;47.998;7.794;2022-12-17T00:54:07;44.35;;;20.15;;
53907;SDS011;40469;47.998;7.794;2022-12-17T00:56:51;46.92;;;21.23;;
53907;SDS011;40469;47.998;7.794;2022-12-17T00:59:35;54.65;;;21.70;;
53907;SDS011;40469;47.998;7.794;2022-12-17T01:02:19;48.35;;;19.42;;
53907;SDS011;40469;47.998;7.794;2022-12-17T01:05:03;46.25;;;19.67;;
53907;SDS011;40469;47.998;7.794;2022-12-17T01:07:48;45.47;;;19.92;;
53907;SDS011;40469;47.998;7.794;2022-12-17T01:10:32;43.45;;;19.48;;
53907;SDS011;40469;47.998;7.794;2022-12-17T01:13:16;49.40;;;20.23;;
53907;SDS011;40469;47.998;7.794;2022-12-17T01:16:05;46.88;;;19.92;;
53907;SDS011;40469;47.998;7.794;2022-12-17T01:18:51;42.20;;;19.33;;
53907;SDS011;40469;47.998;7.794;2022-12-17T01:21:35;42.90;;;19.20;;
53907;SDS011;40469;47.998;7.794;2022-12-17T01:24:19;44.85;;;18.35;;
53907;SDS011;40469;47.998;7.794;2022-12-17T01:27:03;40.20;;;17.85;;
53907;SDS011;40469;47.998;7.794;2022-12-17T01:29:47;49.67;;;20.52;;
53907;SDS011;40469;47.998;7.794;2022-12-17T01:32:31;42.45;;;19.67;;
53907;SDS011;40469;47.998;7.794;2022-12-17T01:35:15;46.45;;;19.10;;
53907;SDS011;40469;47.998;7.794;2022-12-17T01:37:59;43.80;;;17.98;;
53907;SDS011;40469;47.998;7.794;2022-12-17T01:40:43;43.05;;;18.02;;
53907;SDS011;40469;47.998;7.794;2022-12-17T01:43:31;44.47;;;18.83;;
53907;SDS011;40469;47.998;7.794;2022-12-17T01:46:16;45.63;;;19.65;;
53907;SDS011;40469;47.998;7.794;2022-12-17T01:49:00;43.38;;;19.20;;
53907;SDS011;40469;47.998;7.794;2022-12-17T01:52:02;43.03;;;18.83;;
53907;SDS011;40469;47.998;7.794;2022-12-17T01:54:46;51.50;;;19.92;;
53907;SDS011;40469;47.998;7.794;2022-12-17T01:57:32;51.45;;;20.27;;
53907;SDS011;40469;47.998;7.794;2022-12-17T02:00:17;52.95;;;19.88;;
53907;SDS011;40469;47.998;7.794;2022-12-17T02:03:02;46.47;;;18.25;;
53907;SDS011;40469;47.998;7.794;2022-12-17T02:05:59;47.83;;;18.63;;
53907;SDS011;40469;47.998;7.794;2022-12-17T02:09:16;45.85;;;19.73;;
53907;SDS011;40469;47.998;7.794;2022-12-17T02:12:26;52.13;;;18.48;;
53907;SDS011;40469;47.998;7.794;2022-12-17T02:15:30;54.58;;;18.75;;
53907;SDS011;40469;47.998;7.794;2022-12-17T02:18:24;47.65;;;18.95;;
53907;SDS011;40469;47.998;7.794;2022-12-17T02:21:14;48.00;;;18.60;;
53907;SDS011;40469;47.998;7.794;2022-12-17T02:24:08;48.80;;;18.77;;
53907;SDS011;40469;47.998;7.794;2022-12-17T02:27:03;45.17;;;19.00;;
53907;SDS011;40469;47.998;7.794;2022-12-17T02:29:59;43.63;;;18.00;;
53907;SDS011;40469;47.998;7.794;2022-12-17T02:32:47;40.03;;;16.92;;
53907;SDS011;40469;47.998;7.794;2022-12-17T02:35:40;45.25;;;17.02;;
53907;SDS011;40469;47.998;7.794;2022-12-17T02:38:28;47.00;;;18.45;;
53907;SDS011;40469;47.998;7.794;2022-12-17T02:44:31;44.13;;;17.00;;
53907;SDS011;40469;47.998;7.794;2022-12-17T02:47:16;48.50;;;18.55;;
53907;SDS011;40469;47.998;7.794;2022-12-17T02:50:03;47.78;;;19.90;;
53907;SDS011;40469;47.998;7.794;2022-12-17T02:52:47;46.17;;;17.40;;
53907;SDS011;40469;47.998;7.794;2022-12-17T02:55:33;45.92;;;17.85;;
53907;SDS011;40469;47.998;7.794;2022-12-17T02:58:17;44.80;;;17.60;;
53907;SDS011;40469;47.998;7.794;2022-12-17T03:01:01;41.75;;;16.30;;
53907;SDS011;40469;47.998;7.794;2022-12-17T03:03:45;43.58;;;17.30;;
53907;SDS011;40469;47.998;7.794;2022-12-17T03:06:29;40.97;;;15.63;;
53907;SDS011;40469;47.998;7.794;2022-12-17T03:09:13;38.55;;;15.68;;
53907;SDS011;40469;47.998;7.794;2022-12-17T03:11:57;38.58;;;16.20;;
53907;SDS011;40469;47.998;7.794;2022-12-17T03:14:40;40.05;;;15.93;;
53907;SDS011;40469;47.998;7.794;2022-12-17T03:17:24;37.25;;;15.88;;
53907;SDS011;40469;47.998;7.794;2022-12-17T03:20:08;40.38;;;15.70;;
53907;SDS011;40469;47.998;7.794;2022-12-17T03:23:00;42.07;;;16.87;;
53907;SDS011;40469;47.998;7.794;2022-12-17T03:25:45;33.95;;;15.75;;
53907;SDS011;40469;47.998;7.794;2022-12-17T03:28:29;39.33;;;16.23;;
53907;SDS011;40469;47.998;7.794;2022-12-17T03:31:12;36.75;;;15.18;;
53907;SDS011;40469;47.998;7.794;2022-12-17T03:33:56;42.03;;;16.23;;
53907;SDS011;40469;47.998;7.794;2022-12-17T03:36:40;39.53;;;15.50;;
53907;SDS011;40469;47.998;7.794;2022-12-17T03:39:24;38.33;;;14.75;;
53907;SDS011;40469;47.998;7.794;2022-12-17T03:42:08;41.90;;;14.38;;
53907;SDS011;40469;47.998;7.794;2022-12-17T03:44:52;35.15;;;14.65;;
53907;SDS011;40469;47.998;7.794;2022-12-17T03:47:36;34.03;;;14.80;;
53907;SDS011;40469;47.998;7.794;2022-12-17T03:50:19;36.63;;;14.95;;
53907;SDS011;40469;47.998;7.794;2022-12-17T03:53:04;32.97;;;13.35;;
53907;SDS011;40469;47.998;7.794;2022-12-17T03:55:47;36.85;;;13.63;;
53907;SDS011;40469;47.998;7.794;2022-12-17T03:58:31;40.30;;;15.50;;
53907;SDS011;40469;47.998;7.794;2022-12-17T04:01:15;36.42;;;14.25;;
53907;SDS011;40469;47.998;7.794;2022-12-17T04:03:59;36.40;;;15.10;;
53907;SDS011;40469;47.998;7.794;2022-12-17T04:06:43;37.92;;;14.93;;
53907;SDS011;40469;47.998;7.794;2022-12-17T04:09:27;35.53;;;13.68;;
53907;SDS011;40469;47.998;7.794;2022-12-17T04:12:11;32.22;;;14.70;;
53907;SDS011;40469;47.998;7.794;2022-12-17T04:14:55;38.33;;;15.88;;
53907;SDS011;40469;47.998;7.794;2022-12-17T04:17:39;43.20;;;15.85;;
53907;SDS011;40469;47.998;7.794;2022-12-17T04:20:23;44.38;;;15.38;;
53907;SDS011;40469;47.998;7.794;2022-12-17T04:23:07;47.33;;;17.02;;
53907;SDS011;40469;47.998;7.794;2022-12-17T04:25:50;43.70;;;17.27;;
53907;SDS011;40469;47.998;7.794;2022-12-17T04:28:34;38.88;;;15.18;;
53907;SDS011;40469;47.998;7.794;2022-12-17T04:31:18;42.45;;;17.13;;
53907;SDS011;40469;47.998;7.794;2022-12-17T04:34:02;41.80;;;15.75;;
53907;SDS011;40469;47.998;7.794;2022-12-17T04:36:46;36.60;;;15.65;;
53907;SDS011;40469;47.998;7.794;2022-12-17T04:39:30;38.58;;;15.70;;
53907;SDS011;40469;47.998;7.794;2022-12-17T04:42:14;39.40;;;15.60;;
53907;SDS011;40469;47.998;7.794;2022-12-17T04:44:58;40.47;;;15.25;;
53907;SDS011;40469;47.998;7.794;2022-12-17T04:47:42;43.83;;;16.58;;
53907;SDS011;40469;47.998;7.794;2022-12-17T04:50:26;40.15;;;15.20;;
53907;SDS011;40469;47.998;7.794;2022-12-17T04:53:10;40.67;;;15.00;;
53907;SDS011;40469;47.998;7.794;2022-12-17T04:55:54;34.42;;;14.20;;
53907;SDS011;40469;47.998;7.794;2022-12-17T04:58:38;41.40;;;15.57;;
53907;SDS011;40469;47.998;7.794;2022-12-17T05:01:22;39.20;;;14.82;;
53907;SDS011;40469;47.998;7.794;2022-12-17T05:04:06;36.15;;;13.63;;
53907;SDS011;40469;47.998;7.794;2022-12-17T05:06:50;39.72;;;14.45;;
53907;SDS011;40469;47.998;7.794;2022-12-17T05:09:34;38.90;;;15.20;;
53907;SDS011;40469;47.998;7.794;2022-12-17T05:12:18;33.20;;;14.70;;
53907;SDS011;40469;47.998;7.794;2022-12-17T05:15:02;33.90;;;15.30;;
53907;SDS011;40469;47.998;7.794;2022-12-17T05:17:48;38.55;;;14.80;;
53907;SDS011;40469;47.998;7.794;2022-12-17T05:20:35;33.60;;;14.32;;
53907;SDS011;40469;47.998;7.794;2022-12-17T05:23:39;40.13;;;15.75;;
53907;SDS011;40469;47.998;7.794;2022-12-17T05:26:23;36.53;;;14.40;;
53907;SDS011;40469;47.998;7.794;2022-12-17T05:29:09;34.45;;;14.38;;
53907;SDS011;40469;47.998;7.794;2022-12-17T05:31:54;41.05;;;13.55;;
53907;SDS011;40469;47.998;7.794;2022-12-17T05:34:38;34.17;;;13.55;;
53907;SDS011;40469;47.998;7.794;2022-12-17T05:37:21;35.28;;;13.73;;
53907;SDS011;40469;47.998;7.794;2022-12-17T05:40:05;41.10;;;13.68;;
53907;SDS011;40469;47.998;7.794;2022-12-17T05:42:57;42.13;;;14.93;;
53907;SDS011;40469;47.998;7.794;2022-12-17T05:45:46;37.83;;;13.47;;
53907;SDS011;40469;47.998;7.794;2022-12-17T05:48:30;37.15;;;13.90;;
53907;SDS011;40469;47.998;7.794;2022-12-17T05:51:15;41.67;;;14.48;;
53907;SDS011;40469;47.998;7.794;2022-12-17T05:53:59;35.08;;;13.27;;
53907;SDS011;40469;47.998;7.794;2022-12-17T05:56:43;36.83;;;14.00;;
53907;SDS011;40469;47.998;7.794;2022-12-17T05:59:27;33.38;;;13.57;;
53907;SDS011;40469;47.998;7.794;2022-12-17T06:02:10;36.60;;;14.15;;
53907;SDS011;40469;47.998;7.794;2022-12-17T06:04:54;38.80;;;13.32;;
53907;SDS011;40469;47.998;7.794;2022-12-17T06:07:38;33.60;;;12.98;;
53907;SDS011;40469;47.998;7.794;2022-12-17T06:10:22;35.47;;;13.27;;
53907;SDS011;40469;47.998;7.794;2022-12-17T06:13:06;38.88;;;13.60;;
53907;SDS011;40469;47.998;7.794;2022-12-17T06:15:50;34.00;;;13.73;;
53907;SDS011;40469;47.998;7.794;2022-12-17T06:18:35;33.80;;;13.57;;
53907;SDS011;40469;47.998;7.794;2022-12-17T06:21:24;31.63;;;13.23;;
53907;SDS011;40469;47.998;7.794;2022-12-17T06:24:08;38.08;;;12.98;;
53907;SDS011;40469;47.998;7.794;2022-12-17T06:26:51;32.00;;;12.98;;
53907;SDS011;40469;47.998;7.794;2022-12-17T06:29:35;35.97;;;12.35;;
53907;SDS011;40469;47.998;7.794;2022-12-17T06:32:19;29.83;;;10.70;;
53907;SDS011;40469;47.998;7.794;2022-12-17T06:35:03;32.65;;;12.52;;
53907;SDS011;40469;47.998;7.794;2022-12-17T06:37:56;30.13;;;11.32;;
53907;SDS011;40469;47.998;7.794;2022-12-17T06:40:43;40.53;;;13.57;;
53907;SDS011;40469;47.998;7.794;2022-12-17T06:43:27;27.65;;;11.85;;
53907;SDS011;40469;47.998;7.794;2022-12-17T06:46:11;30.75;;;11.25;;
53907;SDS011;40469;47.998;7.794;2022-12-17T06:48:55;30.85;;;12.52;;
53907;SDS011;40469;47.998;7.794;2022-12-17T06:51:39;34.63;;;13.65;;
53907;SDS011;40469;47.998;7.794;2022-12-17T06:54:23;29.02;;;11.40;;
53907;SDS011;40469;47.998;7.794;2022-12-17T06:57:07;33.03;;;11.73;;
53907;SDS011;40469;47.998;7.794;2022-12-17T06:59:51;32.35;;;13.38;;
53907;SDS011;40469;47.998;7.794;2022-12-17T07:02:34;40.65;;;13.30;;
53907;SDS011;40469;47.998;7.794;2022-12-17T07:05:18;33.08;;;12.23;;
53907;SDS011;40469;47.998;7.794;2022-12-17T07:08:02;29.98;;;11.50;;
53907;SDS011;40469;47.998;7.794;2022-12-17T07:10:46;29.77;;;10.77;;
53907;SDS011;40469;47.998;7.794;2022-12-17T07:13:30;35.53;;;12.80;;
53907;SDS011;40469;47.998;7.794;2022-12-17T07:16:14;35.42;;;14.07;;
53907;SDS011;40469;47.998;7.794;2022-12-17T07:18:58;36.75;;;13.48;;
53907;SDS011;40469;47.998;7.794;2022-12-17T07:21:42;35.17;;;13.05;;
53907;SDS011;40469;47.998;7.794;2022-12-17T07:24:26;32.80;;;12.95;;
53907;SDS011;40469;47.998;7.794;2022-12-17T07:27:10;36.78;;;13.80;;
53907;SDS011;40469;47.998;7.794;2022-12-17T07:29:54;34.42;;;13.15;;
53907;SDS011;40469;47.998;7.794;2022-12-17T07:32:38;35.28;;;13.55;;
53907;SDS011;40469;47.998;7.794;2022-12-17T07:35:22;37.65;;;13.50;;
53907;SDS011;40469;47.998;7.794;2022-12-17T07:38:05;31.42;;;12.40;;
53907;SDS011;40469;47.998;7.794;2022-12-17T07:40:53;35.47;;;14.38;;
53907;SDS011;40469;47.998;7.794;2022-12-17T07:43:37;37.20;;;12.82;;
53907;SDS011;40469;47.998;7.794;2022-12-17T07:46:22;33.05;;;13.18;;
53907;SDS011;40469;47.998;7.794;2022-12-17T07:49:05;38.45;;;13.50;;
53907;SDS011;40469;47.998;7.794;2022-12-17T07:51:50;38.00;;;13.70;;
53907;SDS011;40469;47.998;7.794;2022-12-17T07:54:33;32.10;;;12.68;;
53907;SDS011;40469;47.998;7.794;2022-12-17T07:57:17;35.35;;;12.68;;
53907;SDS011;40469;47.998;7.794;2022-12-17T08:00:02;32.08;;;13.50;;
53907;SDS011;40469;47.998;7.794;2022-12-17T08:02:56;42.20;;;13.35;;
53907;SDS011;40469;47.998;7.794;2022-12-17T08:05:44;34.03;;;11.85;;
53907;SDS011;40469;47.998;7.794;2022-12-17T08:08:29;29.92;;;13.05;;
53907;SDS011;40469;47.998;7.794;2022-12-17T08:11:13;39.78;;;14.00;;
53907;SDS011;40469;47.998;7.794;2022-12-17T08:13:57;37.60;;;14.35;;
53907;SDS011;40469;47.998;7.794;2022-12-17T08:16:41;31.55;;;12.75;;
53907;SDS011;40469;47.998;7.794;2022-12-17T08:19:25;30.17;;;11.13;;
53907;SDS011;40469;47.998;7.794;2022-12-17T08:22:09;31.63;;;12.27;;
53907;SDS011;40469;47.998;7.794;2022-12-17T08:24:53;38.88;;;12.95;;
53907;SDS011;40469;47.998;7.794;2022-12-17T08:27:37;32.75;;;13.32;;
53907;SDS011;40469;47.998;7.794;2022-12-17T08:30:21;37.70;;;14.05;;
53907;SDS011;40469;47.998;7.794;2022-12-17T08:33:05;36.30;;;12.68;;
53907;SDS011;40469;47.998;7.794;2022-12-17T08:35:50;42.33;;;14.85;;
53907;SDS011;40469;47.998;7.794;2022-12-17T08:38:35;33.60;;;13.13;;
53907;SDS011;40469;47.998;7.794;2022-12-17T08:41:19;38.45;;;15.40;;
53907;SDS011;40469;47.998;7.794;2022-12-17T08:44:03;35.78;;;15.00;;
53907;SDS011;40469;47.998;7.794;2022-12-17T08:46:47;42.83;;;16.95;;
53907;SDS011;40469;47.998;7.794;2022-12-17T08:49:31;36.17;;;14.88;;
53907;SDS011;40469;47.998;7.794;2022-12-17T08:52:15;39.58;;;16.27;;
53907;SDS011;40469;47.998;7.794;2022-12-17T08:54:59;41.88;;;15.18;;
53907;SDS011;40469;47.998;7.794;2022-12-17T08:57:51;37.15;;;15.30;;
53907;SDS011;40469;47.998;7.794;2022-12-17T09:00:36;39.58;;;15.55;;
53907;SDS011;40469;47.998;7.794;2022-12-17T09:03:19;41.60;;;17.13;;
53907;SDS011;40469;47.998;7.794;2022-12-17T09:06:03;30.48;;;13.98;;
53907;SDS011;40469;47.998;7.794;2022-12-17T09:08:47;32.58;;;13.00;;
53907;SDS011;40469;47.998;7.794;2022-12-17T09:11:31;37.00;;;14.70;;
53907;SDS011;40469;47.998;7.794;2022-12-17T09:14:15;41.15;;;15.05;;
53907;SDS011;40469;47.998;7.794;2022-12-17T09:16:59;30.33;;;13.02;;
53907;SDS011;40469;47.998;7.794;2022-12-17T09:19:43;36.33;;;14.73;;
53907;SDS011;40469;47.998;7.794;2022-12-17T09:22:27;37.20;;;15.23;;
53907;SDS011;40469;47.998;7.794;2022-12-17T09:25:10;46.10;;;14.15;;
53907;SDS011;40469;47.998;7.794;2022-12-17T09:27:58;39.65;;;14.90;;
53907;SDS011;40469;47.998;7.794;2022-12-17T09:30:43;45.20;;;16.77;;
53907;SDS011;40469;47.998;7.794;2022-12-17T09:33:27;43.95;;;14.95;;
53907;SDS011;40469;47.998;7.794;2022-12-17T09:36:11;34.20;;;13.93;;
53907;SDS011;40469;47.998;7.794;2022-12-17T09:38:55;36.10;;;13.82;;
53907;SDS011;40469;47.998;7.794;2022-12-17T09:44:45;37.45;;;14.57;;
53907;SDS011;40469;47.998;7.794;2022-12-17T09:50:36;36.75;;;14.73;;
53907;SDS011;40469;47.998;7.794;2022-12-17T09:53:21;41.80;;;14.30;;
53907;SDS011;40469;47.998;7.794;2022-12-17T09:56:11;35.35;;;14.23;;
53907;SDS011;40469;47.998;7.794;2022-12-17T09:58:57;32.83;;;14.40;;
53907;SDS011;40469;47.998;7.794;2022-12-17T10:01:41;36.42;;;14.00;;
53907;SDS011;40469;47.998;7.794;2022-12-17T10:04:32;29.15;;;12.43;;
53907;SDS011;40469;47.998;7.794;2022-12-17T10:07:24;35.75;;;13.68;;
53907;SDS011;40469;47.998;7.794;2022-12-17T10:10:21;29.38;;;13.05;;
53907;SDS011;40469;47.998;7.794;2022-12-17T10:13:19;29.08;;;10.90;;
53907;SDS011;40469;47.998;7.794;2022-12-17T10:19:22;36.35;;;12.95;;
53907;SDS011;40469;47.998;7.794;2022-12-17T10:22:14;34.03;;;11.98;;
53907;SDS011;40469;47.998;7.794;2022-12-17T10:25:08;38.42;;;14.77;;
53907;SDS011;40469;47.998;7.794;2022-12-17T10:28:04;31.98;;;13.65;;
53907;SDS011;40469;47.998;7.794;2022-12-17T10:30:49;34.80;;;13.43;;
53907;SDS011;40469;47.998;7.794;2022-12-17T10:33:37;35.25;;;14.07;;
53907;SDS011;40469;47.998;7.794;2022-12-17T10:36:22;30.90;;;12.77;;
53907;SDS011;40469;47.998;7.794;2022-12-17T10:42:16;36.05;;;13.57;;
53907;SDS011;40469;47.998;7.794;2022-12-17T10:48:02;37.35;;;14.68;;
53907;SDS011;40469;47.998;7.794;2022-12-17T10:50:46;33.33;;;13.02;;
53907;SDS011;40469;47.998;7.794;2022-12-17T10:53:30;38.55;;;15.18;;
53907;SDS011;40469;47.998;7.794;2022-12-17T10:56:22;38.88;;;14.05;;
53907;SDS011;40469;47.998;7.794;2022-12-17T10:59:12;39.20;;;16.33;;
53907;SDS011;40469;47.998;7.794;2022-12-17T11:02:11;46.20;;;16.17;;
53907;SDS011;40469;47.998;7.794;2022-12-17T11:05:02;36.00;;;14.48;;
53907;SDS011;40469;47.998;7.794;2022-12-17T11:07:46;39.00;;;15.63;;
53907;SDS011;40469;47.998;7.794;2022-12-17T11:10:31;40.22;;;14.57;;
53907;SDS011;40469;47.998;7.794;2022-12-17T11:13:32;41.65;;;15.52;;
53907;SDS011;40469;47.998;7.794;2022-12-17T11:16:33;36.33;;;14.65;;
53907;SDS011;40469;47.998;7.794;2022-12-17T11:22:45;38.63;;;14.25;;
53907;SDS011;40469;47.998;7.794;2022-12-17T11:25:38;43.55;;;16.30;;
53907;SDS011;40469;47.998;7.794;2022-12-17T11:28:27;37.92;;;15.32;;
53907;SDS011;40469;47.998;7.794;2022-12-17T11:31:23;41.58;;;15.00;;
53907;SDS011;40469;47.998;7.794;2022-12-17T11:37:45;40.67;;;14.40;;
53907;SDS011;40469;47.998;7.794;2022-12-17T11:40:38;38.72;;;16.10;;
53907;SDS011;40469;47.998;7.794;2022-12-17T11:46:47;38.88;;;16.23;;
53907;SDS011;40469;47.998;7.794;2022-12-17T11:50:20;44.83;;;16.67;;
53907;SDS011;40469;47.998;7.794;2022-12-17T11:53:09;42.67;;;15.88;;
53907;SDS011;40469;47.998;7.794;2022-12-17T11:59:06;43.33;;;15.63;;
53907;SDS011;40469;47.998;7.794;2022-12-17T12:05:21;64.20;;;25.65;;
53907;SDS011;40469;47.998;7.794;2022-12-17T12:08:26;41.08;;;16.27;;
53907;SDS011;40469;47.998;7.794;2022-12-17T12:17:40;40.35;;;15.23;;
53907;SDS011;40469;47.998;7.794;2022-12-17T12:20:30;44.58;;;15.20;;
53907;SDS011;40469;47.998;7.794;2022-12-17T12:26:29;41.17;;;15.88;;
53907;SDS011;40469;47.998;7.794;2022-12-17T12:29:35;40.80;;;15.23;;
53907;SDS011;40469;47.998;7.794;2022-12-17T12:35:38;37.55;;;15.50;;
53907;SDS011;40469;47.998;7.794;2022-12-17T12:38:25;40.40;;;15.20;;
53907;SDS011;40469;47.998;7.794;2022-12-17T12:44:23;40.03;;;15.70;;
53907;SDS011;40469;47.998;7.794;2022-12-17T12:47:25;43.20;;;17.35;;
53907;SDS011;40469;47.998;7.794;2022-12-17T12:53:36;40.67;;;16.17;;
53907;SDS011;40469;47.998;7.794;2022-12-17T12:56:34;39.88;;;15.85;;
53907;SDS011;40469;47.998;7.794;2022-12-17T12:59:26;42.97;;;16.88;;
53907;SDS011;40469;47.998;7.794;2022-12-17T13:02:30;35.03;;;14.98;;
53907;SDS011;40469;47.998;7.794;2022-12-17T13:05:20;44.00;;;15.13;;
53907;SDS011;40469;47.998;7.794;2022-12-17T13:08:39;42.63;;;16.77;;
53907;SDS011;40469;47.998;7.794;2022-12-17T13:10:47;35.55;;;15.88;;
53907;SDS011;40469;47.998;7.794;2022-12-17T13:15:40;46.80;;;17.02;;
53907;SDS011;40469;47.998;7.794;2022-12-17T13:23:32;40.75;;;16.30;;
53907;SDS011;40469;47.998;7.794;2022-12-17T13:26:17;37.95;;;15.23;;
53907;SDS011;40469;47.998;7.794;2022-12-17T13:28:56;34.80;;;15.18;;
53907;SDS011;40469;47.998;7.794;2022-12-17T13:31:25;43.67;;;17.35;;
53907;SDS011;40469;47.998;7.794;2022-12-17T13:36:37;45.33;;;17.88;;
53907;SDS011;40469;47.998;7.794;2022-12-17T13:39:12;38.60;;;16.23;;
53907;SDS011;40469;47.998;7.794;2022-12-17T13:41:52;42.72;;;16.33;;
53907;SDS011;40469;47.998;7.794;2022-12-17T13:44:21;45.42;;;17.60;;
53907;SDS011;40469;47.998;7.794;2022-12-17T13:46:49;49.17;;;19.70;;
53907;SDS011;40469;47.998;7.794;2022-12-17T13:49:17;48.65;;;19.55;;
53907;SDS011;40469;47.998;7.794;2022-12-17T13:51:58;46.75;;;18.33;;
53907;SDS011;40469;47.998;7.794;2022-12-17T13:54:43;63.20;;;22.63;;
53907;SDS011;40469;47.998;7.794;2022-12-17T13:57:13;56.17;;;20.02;;
53907;SDS011;40469;47.998;7.794;2022-12-17T13:59:39;60.92;;;21.50;;
53907;SDS011;40469;47.998;7.794;2022-12-17T14:02:04;59.55;;;22.55;;
53907;SDS011;40469;47.998;7.794;2022-12-17T14:04:30;64.28;;;21.83;;
53907;SDS011;40469;47.998;7.794;2022-12-17T14:06:57;59.80;;;20.90;;
53907;SDS011;40469;47.998;7.794;2022-12-17T14:09:34;56.30;;;21.25;;
53907;SDS011;40469;47.998;7.794;2022-12-17T14:12:03;50.63;;;20.05;;
53907;SDS011;40469;47.998;7.794;2022-12-17T14:15:05;49.55;;;17.70;;
53907;SDS011;40469;47.998;7.794;2022-12-17T14:17:42;37.85;;;15.63;;
53907;SDS011;40469;47.998;7.794;2022-12-17T14:20:10;49.10;;;17.98;;
53907;SDS011;40469;47.998;7.794;2022-12-17T14:22:40;47.30;;;18.13;;
53907;SDS011;40469;47.998;7.794;2022-12-17T14:25:18;61.50;;;21.20;;
53907;SDS011;40469;47.998;7.794;2022-12-17T14:27:55;57.67;;;20.05;;
53907;SDS011;40469;47.998;7.794;2022-12-17T14:30:24;51.85;;;19.73;;
53907;SDS011;40469;47.998;7.794;2022-12-17T14:32:59;48.15;;;19.23;;
53907;SDS011;40469;47.998;7.794;2022-12-17T14:35:26;49.28;;;18.17;;
53907;SDS011;40469;47.998;7.794;2022-12-17T14:38:03;52.35;;;18.60;;
53907;SDS011;40469;47.998;7.794;2022-12-17T14:40:28;46.60;;;18.30;;
53907;SDS011;40469;47.998;7.794;2022-12-17T14:42:56;44.97;;;17.15;;
53907;SDS011;40469;47.998;7.794;2022-12-17T14:45:24;48.58;;;18.00;;
53907;SDS011;40469;47.998;7.794;2022-12-17T14:47:55;47.10;;;18.48;;
53907;SDS011;40469;47.998;7.794;2022-12-17T14:50:33;43.08;;;16.65;;
53907;SDS011;40469;47.998;7.794;2022-12-17T14:53:21;50.90;;;19.27;;
53907;SDS011;40469;47.998;7.794;2022-12-17T14:55:53;45.92;;;17.20;;
53907;SDS011;40469;47.998;7.794;2022-12-17T14:58:20;61.67;;;23.80;;
53907;SDS011;40469;47.998;7.794;2022-12-17T15:00:51;69.78;;;28.15;;
53907;SDS011;40469;47.998;7.794;2022-12-17T15:05:56;48.92;;;18.13;;
53907;SDS011;40469;47.998;7.794;2022-12-17T15:08:24;45.65;;;17.42;;
53907;SDS011;40469;47.998;7.794;2022-12-17T15:10:51;45.67;;;17.15;;
53907;SDS011;40469;47.998;7.794;2022-12-17T15:13:16;45.70;;;17.08;;
53907;SDS011;40469;47.998;7.794;2022-12-17T15:15:42;44.22;;;17.85;;
53907;SDS011;40469;47.998;7.794;2022-12-17T15:18:07;45.25;;;17.48;;
53907;SDS011;40469;47.998;7.794;2022-12-17T15:20:33;52.35;;;17.98;;
53907;SDS011;40469;47.998;7.794;2022-12-17T15:22:59;48.28;;;18.40;;
53907;SDS011;40469;47.998;7.794;2022-12-17T15:25:25;44.67;;;16.50;;
53907;SDS011;40469;47.998;7.794;2022-12-17T15:27:51;47.55;;;17.55;;
53907;SDS011;40469;47.998;7.794;2022-12-17T15:30:16;45.42;;;17.45;;
53907;SDS011;40469;47.998;7.794;2022-12-17T15:32:43;50.92;;;18.80;;
53907;SDS011;40469;47.998;7.794;2022-12-17T15:35:10;53.92;;;18.35;;
53907;SDS011;40469;47.998;7.794;2022-12-17T15:37:36;58.55;;;21.00;;
53907;SDS011;40469;47.998;7.794;2022-12-17T15:40:02;52.50;;;18.67;;
53907;SDS011;40469;47.998;7.794;2022-12-17T15:42:28;54.08;;;19.52;;
53907;SDS011;40469;47.998;7.794;2022-12-17T15:45:12;46.08;;;18.77;;
53907;SDS011;40469;47.998;7.794;2022-12-17T15:47:37;56.10;;;20.35;;
53907;SDS011;40469;47.998;7.794;2022-12-17T15:50:03;49.30;;;18.08;;
53907;SDS011;40469;47.998;7.794;2022-12-17T15:52:29;47.22;;;18.77;;
53907;SDS011;40469;47.998;7.794;2022-12-17T15:54:54;51.95;;;19.13;;
53907;SDS011;40469;47.998;7.794;2022-12-17T15:57:20;46.72;;;18.58;;
53907;SDS011;40469;47.998;7.794;2022-12-17T15:59:45;48.55;;;19.05;;
53907;SDS011;40469;47.998;7.794;2022-12-17T16:02:10;50.28;;;18.13;;
53907;SDS011;40469;47.998;7.794;2022-12-17T16:04:36;53.45;;;19.17;;
53907;SDS011;40469;47.998;7.794;2022-12-17T16:07:02;48.53;;;18.30;;
53907;SDS011;40469;47.998;7.794;2022-12-17T16:09:28;48.92;;;17.80;;
53907;SDS011;40469;47.998;7.794;2022-12-17T16:11:53;51.30;;;17.77;;
53907;SDS011;40469;47.998;7.794;2022-12-17T16:14:20;51.20;;;17.17;;
53907;SDS011;40469;47.998;7.794;2022-12-17T16:16:46;54.97;;;18.17;;
53907;SDS011;40469;47.998;7.794;2022-12-17T16:19:11;48.45;;;17.88;;
53907;SDS011;40469;47.998;7.794;2022-12-17T16:21:36;52.03;;;18.92;;
53907;SDS011;40469;47.998;7.794;2022-12-17T16:24:02;55.42;;;19.02;;
53907;SDS011;40469;47.998;7.794;2022-12-17T16:26:27;51.00;;;17.83;;
53907;SDS011;40469;47.998;7.794;2022-12-17T16:28:53;49.28;;;16.88;;
53907;SDS011;40469;47.998;7.794;2022-12-17T16:31:18;53.55;;;18.95;;
53907;SDS011;40469;47.998;7.794;2022-12-17T16:33:44;46.10;;;17.17;;
53907;SDS011;40469;47.998;7.794;2022-12-17T16:36:12;53.85;;;17.00;;
53907;SDS011;40469;47.998;7.794;2022-12-17T16:38:46;51.30;;;18.00;;
53907;SDS011;40469;47.998;7.794;2022-12-17T16:41:13;53.30;;;17.70;;
53907;SDS011;40469;47.998;7.794;2022-12-17T16:43:39;47.28;;;16.70;;
53907;SDS011;40469;47.998;7.794;2022-12-17T16:46:05;56.40;;;19.00;;
53907;SDS011;40469;47.998;7.794;2022-12-17T16:48:48;51.80;;;17.90;;
53907;SDS011;40469;47.998;7.794;2022-12-17T16:51:16;42.80;;;16.73;;
53907;SDS011;40469;47.998;7.794;2022-12-17T16:53:43;55.28;;;19.85;;
53907;SDS011;40469;47.998;7.794;2022-12-17T16:56:13;55.35;;;17.52;;
53907;SDS011;40469;47.998;7.794;2022-12-17T16:58:43;46.10;;;17.08;;
53907;SDS011;40469;47.998;7.794;2022-12-17T17:01:09;54.25;;;18.00;;